Time;durP1;ratioP1;P1;durP2;ratioP2;P2;SDS_P1;SDS_P2;PMS_P1;PMS_P2;Temp;Humidity;BMP_temperature;BMP_pressure;BME280_temperature;BME280_humidity;BME280_pressure;Samples;Min_cycle;Max_cycle;Signal;HPM_P1;HPM_P2
2023/01/05 00:01:43;;;;;;;35.22;5.00;;;;;;;;;;5064924;28;20025;-77
2023/01/05 00:04:09;;;;;;;39.78;5.13;;;;;;;;;;5070665;28;20453;-77
2023/01/05 00:06:36;;;;;;;39.75;5.38;;;;;;;;;;5069339;28;20039;-77
2023/01/05 00:09:02;;;;;;;39.72;8.13;;;;;;;;;;5067517;28;20142;-77
2023/01/05 00:22:37;;;;;;;40.78;6.80;;;;;;;;;;5022056;28;20065;-78
2023/01/05 00:25:03;;;;;;;36.13;5.40;;;;;;;;;;5024340;28;20048;-77
2023/01/05 00:27:29;;;;;;;39.42;6.72;;;;;;;;;;5023478;28;20041;-77
2023/01/05 00:29:56;;;;;;;27.92;5.30;;;;;;;;;;5021108;28;20109;-76
2023/01/05 00:32:22;;;;;;;34.60;4.85;;;;;;;;;;5021220;28;20030;-77
2023/01/05 00:34:49;;;;;;;35.50;4.72;;;;;;;;;;5023705;28;20056;-77
2023/01/05 00:37:15;;;;;;;34.60;5.50;;;;;;;;;;5026748;28;20025;-76
2023/01/05 00:39:41;;;;;;;30.40;5.72;;;;;;;;;;5026029;28;20273;-77
2023/01/05 00:42:07;;;;;;;31.58;4.60;;;;;;;;;;5029067;28;20032;-77
2023/01/05 00:44:33;;;;;;;39.92;6.22;;;;;;;;;;5027484;28;20044;-77
2023/01/05 00:46:59;;;;;;;37.67;6.57;;;;;;;;;;5027414;28;20064;-77
2023/01/05 00:49:25;;;;;;;31.10;5.45;;;;;;;;;;5026075;28;20033;-76
2023/01/05 00:51:51;;;;;;;35.10;5.90;;;;;;;;;;5027315;28;20084;-77
2023/01/05 00:54:17;;;;;;;43.78;5.85;;;;;;;;;;5026316;28;20446;-76
2023/01/05 00:56:43;;;;;;;30.73;5.25;;;;;;;;;;5027684;28;20124;-80
2023/01/05 00:59:09;;;;;;;28.98;5.68;;;;;;;;;;5021380;28;20037;-79
2023/01/05 01:01:35;;;;;;;29.33;4.85;;;;;;;;;;5025450;28;20036;-77
2023/01/05 01:04:01;;;;;;;33.40;6.22;;;;;;;;;;5026290;28;20041;-77
2023/01/05 01:06:27;;;;;;;30.48;6.53;;;;;;;;;;5028516;28;20038;-77
2023/01/05 01:08:53;;;;;;;33.42;5.57;;;;;;;;;;5024577;28;20056;-80
2023/01/05 01:11:19;;;;;;;38.72;7.03;;;;;;;;;;5025320;28;20354;-77
2023/01/05 01:13:45;;;;;;;30.83;3.95;;;;;;;;;;5026734;28;20059;-77
2023/01/05 01:16:13;;;;;;;29.02;5.78;;;;;;;;;;5026306;28;20046;-76
2023/01/05 01:18:39;;;;;;;26.55;4.60;;;;;;;;;;5026650;28;20466;-77
2023/01/05 01:21:05;;;;;;;28.42;5.18;;;;;;;;;;5046579;28;20088;-77
2023/01/05 01:23:36;;;;;;;34.05;5.55;;;;;;;;;;5070171;28;20075;-77
2023/01/05 01:26:06;;;;;;;31.35;5.55;;;;;;;;;;5070180;28;20122;-77
2023/01/05 01:28:32;;;;;;;36.13;6.32;;;;;;;;;;5068156;28;20112;-77
2023/01/05 01:30:58;;;;;;;36.90;7.30;;;;;;;;;;5064154;28;20138;-77
2023/01/05 01:33:24;;;;;;;37.67;5.05;;;;;;;;;;5064180;28;20040;-78
2023/01/05 01:35:50;;;;;;;31.17;4.53;;;;;;;;;;5064622;28;20078;-77
2023/01/05 01:38:16;;;;;;;31.42;4.75;;;;;;;;;;5060148;28;20441;-81
2023/01/05 01:40:44;;;;;;;27.45;4.90;;;;;;;;;;5061143;28;20492;-78
2023/01/05 01:43:12;;;;;;;29.70;4.85;;;;;;;;;;5061386;28;20391;-77
2023/01/05 01:45:38;;;;;;;39.28;5.68;;;;;;;;;;5059928;28;20028;-77
2023/01/05 01:48:04;;;;;;;26.50;5.07;;;;;;;;;;5062825;28;20049;-80
2023/01/05 01:50:32;;;;;;;40.78;6.43;;;;;;;;;;5069400;28;20040;-81
2023/01/05 01:53:05;;;;;;;45.13;6.57;;;;;;;;;;5066045;28;20021;-77
2023/01/05 01:55:31;;;;;;;30.63;5.63;;;;;;;;;;5047972;28;20036;-77
2023/01/05 01:57:57;;;;;;;33.88;5.35;;;;;;;;;;5046375;28;20036;-77
2023/01/05 02:00:24;;;;;;;40.90;5.57;;;;;;;;;;5062689;28;20060;-79
2023/01/05 02:02:51;;;;;;;29.60;5.93;;;;;;;;;;5061938;28;20024;-77
2023/01/05 02:05:18;;;;;;;32.42;5.07;;;;;;;;;;5069086;28;20036;-81
2023/01/05 02:07:45;;;;;;;40.00;6.47;;;;;;;;;;5062677;28;20040;-76
2023/01/05 02:10:11;;;;;;;33.22;5.43;;;;;;;;;;5067343;28;20095;-77
2023/01/05 02:12:55;;;;;;;38.17;7.15;;;;;;;;;;5064111;28;20098;-77
2023/01/05 02:15:22;;;;;;;35.90;5.85;;;;;;;;;;5064713;28;20036;-76
2023/01/05 02:17:48;;;;;;;27.88;4.57;;;;;;;;;;5062855;28;20035;-79
2023/01/05 02:20:29;;;;;;;37.13;5.50;;;;;;;;;;5066051;28;20024;-77
2023/01/05 02:23:13;;;;;;;31.95;4.90;;;;;;;;;;5061659;28;20021;-76
2023/01/05 02:25:51;;;;;;;30.73;4.95;;;;;;;;;;5067849;28;20035;-76
2023/01/05 02:28:36;;;;;;;24.52;4.80;;;;;;;;;;5065554;28;20048;-75
2023/01/05 02:31:08;;;;;;;37.63;7.30;;;;;;;;;;5062349;28;20083;-76
2023/01/05 02:33:53;;;;;;;21.88;4.22;;;;;;;;;;5062339;28;20052;-78
2023/01/05 02:36:19;;;;;;;21.90;3.67;;;;;;;;;;5047162;28;21202;-77
2023/01/05 02:38:49;;;;;;;43.15;7.88;;;;;;;;;;5062453;28;20025;-77
2023/01/05 02:41:22;;;;;;;45.90;6.47;;;;;;;;;;5066862;28;20024;-76
2023/01/05 02:43:48;;;;;;;35.72;5.07;;;;;;;;;;5064066;28;20063;-77
2023/01/05 02:46:14;;;;;;;25.55;4.35;;;;;;;;;;5060281;28;20047;-76
2023/01/05 02:48:41;;;;;;;41.63;5.57;;;;;;;;;;5067046;28;20522;-76
2023/01/05 02:51:09;;;;;;;40.95;6.50;;;;;;;;;;5064017;28;20028;-76
2023/01/05 02:53:39;;;;;;;30.02;5.93;;;;;;;;;;5059914;28;20481;-77
2023/01/05 02:56:05;;;;;;;36.40;5.13;;;;;;;;;;5064558;28;20082;-77
2023/01/05 02:58:58;;;;;;;29.75;5.38;;;;;;;;;;5066637;28;20914;-77
2023/01/05 03:01:26;;;;;;;44.92;5.90;;;;;;;;;;5063617;28;20377;-77
2023/01/05 03:03:54;;;;;;;37.15;5.28;;;;;;;;;;5058279;28;20090;-76
2023/01/05 03:06:24;;;;;;;45.00;5.70;;;;;;;;;;5068420;28;20028;-76
2023/01/05 03:08:52;;;;;;;30.20;4.57;;;;;;;;;;5063168;28;20024;-77
2023/01/05 03:14:06;;;;;;;39.53;7.65;;;;;;;;;;5067313;28;20055;-75
2023/01/05 03:16:33;;;;;;;41.22;5.03;;;;;;;;;;5047658;28;20033;-77
2023/01/05 03:35:40;;;;;;;39.20;5.45;;;;;;;;;;5065000;28;20495;-76
2023/01/05 03:38:10;;;;;;;35.30;4.88;;;;;;;;;;5061795;28;20131;-79
2023/01/05 03:40:37;;;;;;;29.27;4.30;;;;;;;;;;5062307;28;20024;-77
2023/01/05 03:43:04;;;;;;;27.58;4.80;;;;;;;;;;5061667;28;20495;-78
2023/01/05 03:45:53;;;;;;;36.63;5.78;;;;;;;;;;5064676;28;20414;-78
2023/01/05 03:48:19;;;;;;;30.05;4.55;;;;;;;;;;5055538;28;20489;-76
2023/01/05 03:50:46;;;;;;;38.00;4.93;;;;;;;;;;5065531;28;20036;-77
2023/01/05 03:53:12;;;;;;;36.20;4.82;;;;;;;;;;5060652;28;20104;-80
2023/01/05 03:55:38;;;;;;;33.60;5.32;;;;;;;;;;5041341;28;20040;-77
2023/01/05 03:58:04;;;;;;;40.65;5.95;;;;;;;;;;5062148;28;20078;-77
2023/01/05 04:00:30;;;;;;;33.85;5.47;;;;;;;;;;5059530;28;20032;-78
2023/01/05 04:02:56;;;;;;;31.83;4.55;;;;;;;;;;5043484;28;20031;-78
2023/01/05 04:05:22;;;;;;;28.23;5.43;;;;;;;;;;5045394;28;20044;-77
2023/01/05 04:07:48;;;;;;;33.53;4.80;;;;;;;;;;5060195;28;20025;-78
2023/01/05 04:10:14;;;;;;;41.10;5.95;;;;;;;;;;5063356;28;20029;-77
2023/01/05 04:12:40;;;;;;;40.95;6.65;;;;;;;;;;5062111;28;20024;-77
2023/01/05 04:15:06;;;;;;;29.50;4.13;;;;;;;;;;5060378;28;20492;-78
2023/01/05 04:17:32;;;;;;;28.05;4.13;;;;;;;;;;5058432;28;20036;-78
2023/01/05 04:19:58;;;;;;;36.83;6.47;;;;;;;;;;5059743;28;20025;-77
2023/01/05 04:22:26;;;;;;;25.55;4.45;;;;;;;;;;5057387;28;20485;-77
2023/01/05 04:24:52;;;;;;;23.92;4.80;;;;;;;;;;5055485;28;20090;-77
2023/01/05 04:27:18;;;;;;;31.42;4.05;;;;;;;;;;5060781;28;20343;-77
2023/01/05 04:29:44;;;;;;;30.83;5.72;;;;;;;;;;5066826;28;20107;-77
2023/01/05 04:32:10;;;;;;;29.77;4.03;;;;;;;;;;5067481;28;20056;-77
2023/01/05 04:34:36;;;;;;;25.52;5.97;;;;;;;;;;5043516;28;20078;-78
2023/01/05 04:37:02;;;;;;;35.25;4.85;;;;;;;;;;5062972;28;20102;-77
2023/01/05 04:39:28;;;;;;;42.30;5.13;;;;;;;;;;5043985;28;20356;-76
2023/01/05 04:41:54;;;;;;;28.48;4.10;;;;;;;;;;5070760;28;20039;-77
2023/01/05 04:44:20;;;;;;;27.17;5.35;;;;;;;;;;5068212;28;20112;-77
2023/01/05 04:46:46;;;;;;;24.27;4.72;;;;;;;;;;5071305;28;20115;-78
2023/01/05 04:49:12;;;;;;;31.73;4.47;;;;;;;;;;5064978;28;20039;-77
2023/01/05 04:51:38;;;;;;;33.25;5.93;;;;;;;;;;5069983;28;20401;-80
2023/01/05 04:54:04;;;;;;;34.78;4.63;;;;;;;;;;5072107;28;20047;-77
2023/01/05 04:56:30;;;;;;;28.38;4.20;;;;;;;;;;5068534;28;20067;-77
2023/01/05 04:58:56;;;;;;;35.58;4.90;;;;;;;;;;5046933;28;20032;-77
2023/01/05 05:01:22;;;;;;;42.47;6.57;;;;;;;;;;5066439;28;20044;-78
2023/01/05 05:03:48;;;;;;;31.08;5.65;;;;;;;;;;5048586;28;20040;-81
2023/01/05 05:06:16;;;;;;;35.35;5.85;;;;;;;;;;5048776;28;20044;-78
2023/01/05 05:08:42;;;;;;;38.67;4.53;;;;;;;;;;5071552;28;20059;-76
2023/01/05 05:11:08;;;;;;;38.42;4.95;;;;;;;;;;5063784;28;20097;-77
2023/01/05 05:13:34;;;;;;;37.22;5.55;;;;;;;;;;5065292;28;20468;-77
2023/01/05 05:16:00;;;;;;;32.58;5.63;;;;;;;;;;5066763;28;20086;-78
2023/01/05 05:18:26;;;;;;;36.70;6.60;;;;;;;;;;5050081;28;20047;-77
2023/01/05 05:20:52;;;;;;;31.05;4.38;;;;;;;;;;5063828;28;20481;-77
2023/01/05 05:23:19;;;;;;;28.80;4.13;;;;;;;;;;5064519;28;20028;-77
2023/01/05 05:25:45;;;;;;;27.95;4.88;;;;;;;;;;5063940;28;20028;-78
2023/01/05 05:28:11;;;;;;;27.95;5.88;;;;;;;;;;5067770;28;20401;-77
2023/01/05 05:30:37;;;;;;;40.20;6.53;;;;;;;;;;5061625;28;20469;-77
2023/01/05 05:33:03;;;;;;;36.58;5.03;;;;;;;;;;5048895;28;20037;-76
2023/01/05 05:35:29;;;;;;;40.10;5.35;;;;;;;;;;5067380;28;20039;-75
2023/01/05 05:37:55;;;;;;;29.05;4.75;;;;;;;;;;5062501;28;20095;-78
2023/01/05 05:40:21;;;;;;;30.30;5.90;;;;;;;;;;5063972;28;20366;-78
2023/01/05 05:42:47;;;;;;;26.83;4.65;;;;;;;;;;5060380;28;20325;-79
2023/01/05 05:45:13;;;;;;;35.75;5.60;;;;;;;;;;5062029;28;20099;-78
2023/01/05 05:47:39;;;;;;;34.97;6.00;;;;;;;;;;5061128;28;20777;-81
2023/01/05 05:50:05;;;;;;;40.08;3.90;;;;;;;;;;5061466;28;20035;-78
2023/01/05 05:52:31;;;;;;;28.70;4.53;;;;;;;;;;5054107;28;20116;-78
2023/01/05 05:54:57;;;;;;;29.90;4.18;;;;;;;;;;5057449;28;20107;-76
2023/01/05 05:57:23;;;;;;;29.13;5.22;;;;;;;;;;5062627;28;20044;-80
2023/01/05 05:59:49;;;;;;;31.33;5.03;;;;;;;;;;5057761;28;20035;-80
2023/01/05 06:02:16;;;;;;;36.20;5.40;;;;;;;;;;5052593;28;20428;-79
2023/01/05 06:04:42;;;;;;;30.10;4.20;;;;;;;;;;5056922;28;20310;-78
2023/01/05 06:07:08;;;;;;;36.00;7.90;;;;;;;;;;5059892;28;20099;-76
2023/01/05 06:09:34;;;;;;;101.82;40.65;;;;;;;;;;5062336;28;20500;-75
2023/01/05 06:12:00;;;;;;;29.42;4.78;;;;;;;;;;5071539;28;20039;-76
2023/01/05 06:14:26;;;;;;;37.70;6.72;;;;;;;;;;5066570;28;20768;-77
2023/01/05 06:16:52;;;;;;;41.13;7.32;;;;;;;;;;5059693;28;20036;-77
2023/01/05 06:19:18;;;;;;;36.88;5.85;;;;;;;;;;5071736;28;20020;-77
2023/01/05 06:21:44;;;;;;;31.15;5.78;;;;;;;;;;5069031;28;20500;-77
2023/01/05 06:24:10;;;;;;;30.65;4.82;;;;;;;;;;5065075;28;20040;-76
2023/01/05 06:26:36;;;;;;;36.03;5.53;;;;;;;;;;5061803;28;20052;-76
2023/01/05 06:29:02;;;;;;;32.17;6.45;;;;;;;;;;5060921;28;20036;-76
2023/01/05 06:31:29;;;;;;;41.65;6.38;;;;;;;;;;5062194;28;20040;-77
2023/01/05 06:33:55;;;;;;;31.17;6.78;;;;;;;;;;5063340;28;20040;-76
2023/01/05 06:36:21;;;;;;;28.63;3.70;;;;;;;;;;5060786;28;20133;-79
2023/01/05 06:38:47;;;;;;;36.25;5.00;;;;;;;;;;5061785;28;20040;-78
2023/01/05 06:41:13;;;;;;;39.78;5.65;;;;;;;;;;5058533;28;20138;-79
2023/01/05 06:43:39;;;;;;;24.67;4.38;;;;;;;;;;5056406;28;20150;-78
2023/01/05 06:46:05;;;;;;;27.95;3.78;;;;;;;;;;5060905;28;20517;-78
2023/01/05 06:48:31;;;;;;;32.15;4.97;;;;;;;;;;5062267;28;20060;-78
2023/01/05 06:50:57;;;;;;;35.03;4.50;;;;;;;;;;5055355;28;20617;-78
2023/01/05 06:53:23;;;;;;;34.80;6.20;;;;;;;;;;5046446;28;20124;-79
2023/01/05 06:55:49;;;;;;;34.70;4.50;;;;;;;;;;5063642;28;20117;-77
2023/01/05 06:58:15;;;;;;;35.72;4.82;;;;;;;;;;5061005;28;20122;-77
2023/01/05 07:00:41;;;;;;;36.88;5.00;;;;;;;;;;5060787;28;20033;-77
2023/01/05 07:03:07;;;;;;;32.70;4.70;;;;;;;;;;5062621;28;20056;-76
2023/01/05 07:05:33;;;;;;;26.55;5.28;;;;;;;;;;5054912;28;20085;-79
2023/01/05 07:07:59;;;;;;;24.67;5.03;;;;;;;;;;5060109;28;20434;-79
2023/01/05 07:10:25;;;;;;;30.10;4.78;;;;;;;;;;5061432;28;20048;-79
2023/01/05 07:12:51;;;;;;;24.40;4.00;;;;;;;;;;5044898;28;20055;-80
2023/01/05 07:15:17;;;;;;;27.48;4.15;;;;;;;;;;5061171;28;20523;-79
2023/01/05 07:17:43;;;;;;;28.08;5.57;;;;;;;;;;5047406;28;20068;-79
2023/01/05 07:20:09;;;;;;;23.05;4.15;;;;;;;;;;5061359;28;20060;-79
2023/01/05 07:22:35;;;;;;;32.28;4.75;;;;;;;;;;5059312;28;20049;-78
2023/01/05 07:25:01;;;;;;;35.28;4.10;;;;;;;;;;5058603;28;20499;-78
2023/01/05 07:27:27;;;;;;;30.58;3.60;;;;;;;;;;5062952;28;20448;-77
2023/01/05 07:29:53;;;;;;;30.55;5.05;;;;;;;;;;5058146;28;20040;-77
2023/01/05 07:32:19;;;;;;;27.70;4.55;;;;;;;;;;5061723;28;20033;-78
2023/01/05 07:34:45;;;;;;;24.85;4.45;;;;;;;;;;5058510;28;20016;-76
2023/01/05 07:37:11;;;;;;;32.30;3.83;;;;;;;;;;5057797;28;20517;-78
2023/01/05 07:39:37;;;;;;;36.65;5.45;;;;;;;;;;5057048;28;20891;-77
2023/01/05 07:42:03;;;;;;;28.90;4.38;;;;;;;;;;5060009;28;20033;-78
2023/01/05 07:44:29;;;;;;;24.38;4.70;;;;;;;;;;5058934;28;20033;-78
2023/01/05 07:46:55;;;;;;;23.75;4.00;;;;;;;;;;5059762;28;20056;-77
2023/01/05 07:49:21;;;;;;;34.03;5.20;;;;;;;;;;5056516;28;20063;-78
2023/01/05 07:51:47;;;;;;;33.55;5.90;;;;;;;;;;5059512;28;20045;-78
2023/01/05 07:54:14;;;;;;;34.38;8.30;;;;;;;;;;5052608;28;20071;-78
2023/01/05 07:56:40;;;;;;;38.15;5.15;;;;;;;;;;5063361;28;20032;-76
2023/01/05 07:59:06;;;;;;;36.42;4.32;;;;;;;;;;5058864;28;20033;-77
2023/01/05 08:01:32;;;;;;;32.05;5.35;;;;;;;;;;5057561;28;20054;-78
2023/01/05 08:03:58;;;;;;;26.17;4.53;;;;;;;;;;5063257;28;20465;-79
2023/01/05 08:06:24;;;;;;;28.90;4.38;;;;;;;;;;5061508;28;20063;-77
2023/01/05 08:08:50;;;;;;;33.05;4.45;;;;;;;;;;5064892;28;20223;-77
2023/01/05 08:11:18;;;;;;;39.97;4.55;;;;;;;;;;5064653;28;20139;-76
2023/01/05 08:14:01;;;;;;;27.75;3.88;;;;;;;;;;5065756;28;20377;-76
2023/01/05 08:16:28;;;;;;;27.55;3.42;;;;;;;;;;5059051;28;20040;-75
2023/01/05 08:18:54;;;;;;;36.35;4.20;;;;;;;;;;5062120;28;20035;-76
2023/01/05 08:21:20;;;;;;;30.35;8.20;;;;;;;;;;5053647;28;20041;-76
2023/01/05 08:23:46;;;;;;;39.15;14.15;;;;;;;;;;5067093;28;20122;-77
2023/01/05 08:26:14;;;;;;;29.48;4.93;;;;;;;;;;5064920;28;20036;-76
2023/01/05 08:28:40;;;;;;;27.27;4.13;;;;;;;;;;5059373;28;20024;-76
2023/01/05 08:31:14;;;;;;;27.73;3.92;;;;;;;;;;5060585;28;20117;-76
2023/01/05 08:33:40;;;;;;;39.28;5.85;;;;;;;;;;5059810;28;20399;-78
2023/01/05 08:36:10;;;;;;;35.40;4.45;;;;;;;;;;5060473;28;20032;-76
2023/01/05 08:38:36;;;;;;;27.55;4.63;;;;;;;;;;5057187;28;20102;-79
2023/01/05 08:41:02;;;;;;;25.55;5.43;;;;;;;;;;5062881;28;20068;-77
2023/01/05 08:43:28;;;;;;;28.80;3.22;;;;;;;;;;5058060;28;20033;-75
2023/01/05 08:45:55;;;;;;;33.45;4.90;;;;;;;;;;5055356;28;20025;-76
2023/01/05 08:48:21;;;;;;;29.08;6.40;;;;;;;;;;5051909;28;20068;-78
2023/01/05 08:50:47;;;;;;;39.50;5.10;;;;;;;;;;5051371;28;20099;-77
2023/01/05 08:53:13;;;;;;;37.60;4.40;;;;;;;;;;5051437;28;20465;-78
2023/01/05 08:55:39;;;;;;;31.25;4.05;;;;;;;;;;5051073;28;20086;-77
2023/01/05 08:58:06;;;;;;;26.02;5.22;;;;;;;;;;5037802;28;20032;-76
2023/01/05 09:00:32;;;;;;;21.67;4.90;;;;;;;;;;5059219;28;20459;-77
2023/01/05 09:02:58;;;;;;;25.63;4.90;;;;;;;;;;5045433;28;20028;-77
2023/01/05 09:05:24;;;;;;;33.38;4.43;;;;;;;;;;5058535;28;20036;-79
2023/01/05 09:07:50;;;;;;;33.83;4.70;;;;;;;;;;5062596;28;20544;-76
2023/01/05 09:10:16;;;;;;;31.20;4.35;;;;;;;;;;5047534;28;20168;-80
2023/01/05 09:12:42;;;;;;;25.70;3.95;;;;;;;;;;5046365;28;20097;-77
2023/01/05 09:15:08;;;;;;;29.65;4.70;;;;;;;;;;5063907;28;20461;-77
2023/01/05 09:17:35;;;;;;;28.38;4.57;;;;;;;;;;5062307;28;20043;-79
2023/01/05 09:20:02;;;;;;;26.30;4.63;;;;;;;;;;5046496;28;20078;-77
2023/01/05 09:22:30;;;;;;;28.98;4.68;;;;;;;;;;5042725;28;20471;-78
2023/01/05 09:24:56;;;;;;;38.83;5.60;;;;;;;;;;5064397;28;20025;-75
2023/01/05 09:27:22;;;;;;;30.30;3.90;;;;;;;;;;5062995;28;20045;-76
2023/01/05 09:29:48;;;;;;;28.55;4.20;;;;;;;;;;5058176;28;20068;-78
2023/01/05 09:32:14;;;;;;;32.78;4.75;;;;;;;;;;5060928;28;20507;-76
2023/01/05 09:34:40;;;;;;;31.70;4.82;;;;;;;;;;5061671;28;20048;-76
2023/01/05 09:37:06;;;;;;;27.40;3.90;;;;;;;;;;5045756;28;20489;-77
2023/01/05 09:39:32;;;;;;;30.05;5.45;;;;;;;;;;5063932;28;20017;-76
2023/01/05 09:42:01;;;;;;;30.80;5.53;;;;;;;;;;5047021;28;20016;-77
2023/01/05 09:44:37;;;;;;;48.10;6.05;;;;;;;;;;5062187;28;20024;-78
2023/01/05 09:47:04;;;;;;;34.63;6.10;;;;;;;;;;5058900;28;20132;-79
2023/01/05 09:49:31;;;;;;;51.30;14.65;;;;;;;;;;5065930;28;20366;-79
2023/01/05 09:52:02;;;;;;;26.80;7.22;;;;;;;;;;5064912;28;20069;-83
2023/01/05 09:54:29;;;;;;;24.90;3.55;;;;;;;;;;5058746;28;20027;-77
2023/01/05 09:56:58;;;;;;;21.98;3.53;;;;;;;;;;5061371;28;20032;-76
2023/01/05 09:59:24;;;;;;;34.58;5.47;;;;;;;;;;5067391;28;20024;-76
2023/01/05 10:01:50;;;;;;;25.95;4.63;;;;;;;;;;5069628;28;20103;-77
2023/01/05 10:04:18;;;;;;;26.55;5.22;;;;;;;;;;5070627;28;20111;-76
2023/01/05 10:06:47;;;;;;;27.90;3.65;;;;;;;;;;5068665;28;20496;-77
2023/01/05 10:09:15;;;;;;;32.55;5.43;;;;;;;;;;5052696;28;20040;-77
2023/01/05 10:14:42;;;;;;;23.27;4.85;;;;;;;;;;5062282;28;20102;-77
2023/01/05 10:17:17;;;;;;;24.30;3.42;;;;;;;;;;5057015;28;20036;-79
2023/01/05 10:19:43;;;;;;;20.95;3.00;;;;;;;;;;5065880;28;20036;-78
2023/01/05 10:22:22;;;;;;;23.48;4.47;;;;;;;;;;5061920;28;20048;-76
2023/01/05 10:24:48;;;;;;;22.73;3.70;;;;;;;;;;5059314;28;20056;-76
2023/01/05 10:27:21;;;;;;;35.03;5.20;;;;;;;;;;5060757;28;20068;-76
2023/01/05 10:29:47;;;;;;;;;;;;;;;;;;5061124;28;20032;-79
2023/01/05 10:32:40;;;;;;;21.77;3.05;;;;;;;;;;5057362;28;19916;-79
2023/01/05 10:35:23;;;;;;;27.58;3.35;;;;;;;;;;5062800;28;20048;-79
2023/01/05 10:38:00;;;;;;;20.65;3.58;;;;;;;;;;5057234;28;20029;-80
2023/01/05 10:40:43;;;;;;;16.95;2.88;;;;;;;;;;5048359;28;20033;-79
2023/01/05 10:43:12;;;;;;;38.22;13.13;;;;;;;;;;5040097;28;20032;-78
2023/01/05 10:45:40;;;;;;;16.02;2.78;;;;;;;;;;5065035;28;20031;-76
2023/01/05 10:48:12;;;;;;;28.33;3.65;;;;;;;;;;5068559;28;20021;-76
2023/01/05 10:50:39;;;;;;;22.40;2.90;;;;;;;;;;5045544;28;20124;-78
2023/01/05 10:53:10;;;;;;;20.75;3.33;;;;;;;;;;5059382;28;20040;-79
2023/01/05 10:55:56;;;;;;;21.83;3.92;;;;;;;;;;5063372;28;20031;-78
2023/01/05 10:58:30;;;;;;;21.08;3.83;;;;;;;;;;5066121;28;20115;-79
2023/01/05 11:01:19;;;;;;;30.63;4.35;;;;;;;;;;5044055;28;20035;-79
2023/01/05 11:03:47;;;;;;;23.42;3.72;;;;;;;;;;5055226;28;20036;-78
2023/01/05 11:06:39;;;;;;;27.02;4.25;;;;;;;;;;5061221;28;20021;-78
2023/01/05 11:09:25;;;;;;;29.43;4.00;;;;;;;;;;5039549;28;20097;-79
2023/01/05 11:11:56;;;;;;;22.13;3.78;;;;;;;;;;5059646;28;20040;-81
2023/01/05 11:14:22;;;;;;;23.88;3.75;;;;;;;;;;5060377;28;20035;-76
2023/01/05 11:16:50;;;;;;;31.63;4.38;;;;;;;;;;5062187;28;20477;-77
2023/01/05 11:19:17;;;;;;;25.85;4.03;;;;;;;;;;5063530;28;20040;-78
2023/01/05 11:21:44;;;;;;;22.77;4.50;;;;;;;;;;5058794;28;20049;-77
2023/01/05 11:24:22;;;;;;;26.13;4.50;;;;;;;;;;5062543;28;20035;-78
2023/01/05 11:26:49;;;;;;;21.70;4.82;;;;;;;;;;5061710;28;20045;-80
2023/01/05 11:29:16;;;;;;;18.13;3.22;;;;;;;;;;5059470;28;20036;-79
2023/01/05 11:31:47;;;;;;;26.60;3.92;;;;;;;;;;5061162;28;20119;-77
2023/01/05 11:34:19;;;;;;;21.73;3.65;;;;;;;;;;5056379;28;20035;-79
2023/01/05 11:37:03;;;;;;;19.63;4.03;;;;;;;;;;5060827;28;20020;-79
2023/01/05 11:39:31;;;;;;;22.63;4.05;;;;;;;;;;5042706;28;20040;-79
2023/01/05 11:42:11;;;;;;;27.23;4.53;;;;;;;;;;5066855;28;20375;-79
2023/01/05 11:44:38;;;;;;;22.65;4.45;;;;;;;;;;5055881;28;20028;-78
2023/01/05 11:47:06;;;;;;;25.98;4.35;;;;;;;;;;5062354;28;20392;-76
2023/01/05 11:49:32;;;;;;;20.27;2.90;;;;;;;;;;5065612;28;20016;-78
2023/01/05 11:51:58;;;;;;;27.98;5.07;;;;;;;;;;5057978;28;20028;-79
2023/01/05 11:54:35;;;;;;;25.55;5.05;;;;;;;;;;5057807;28;20028;-77
2023/01/05 11:57:13;;;;;;;26.00;4.00;;;;;;;;;;5064056;28;20065;-79
2023/01/05 11:59:39;;;;;;;26.17;3.72;;;;;;;;;;5061628;28;20028;-78
2023/01/05 12:02:24;;;;;;;27.00;6.03;;;;;;;;;;5064767;28;20049;-79
2023/01/05 12:04:50;;;;;;;23.48;4.47;;;;;;;;;;5059984;28;20542;-78
2023/01/05 12:07:36;;;;;;;23.52;5.93;;;;;;;;;;5049074;28;20037;-77
2023/01/05 12:10:02;;;;;;;27.70;4.03;;;;;;;;;;5064060;28;20036;-79
2023/01/05 12:13:00;;;;;;;32.30;4.63;;;;;;;;;;5060985;28;20028;-79
2023/01/05 12:15:32;;;;;;;25.25;4.22;;;;;;;;;;5016983;28;20069;-77
2023/01/05 12:18:14;;;;;;;27.67;5.57;;;;;;;;;;5060748;28;20481;-77
2023/01/05 12:20:46;;;;;;;28.85;3.78;;;;;;;;;;5060022;28;20028;-80
2023/01/05 12:23:12;;;;;;;17.80;3.72;;;;;;;;;;5065465;28;20047;-76
2023/01/05 12:25:45;;;;;;;20.02;3.42;;;;;;;;;;5060230;28;20020;-76
2023/01/05 12:28:21;;;;;;;23.45;4.30;;;;;;;;;;5064096;28;20033;-79
2023/01/05 12:31:06;;;;;;;19.02;4.30;;;;;;;;;;5065441;28;20032;-77
2023/01/05 12:33:37;;;;;;;21.52;4.60;;;;;;;;;;5061783;28;20371;-77
2023/01/05 12:36:14;;;;;;;25.63;4.03;;;;;;;;;;5062501;28;20029;-77
2023/01/05 12:38:52;;;;;;;32.00;5.68;;;;;;;;;;5065030;28;20286;-76
2023/01/05 12:41:21;;;;;;;28.52;4.38;;;;;;;;;;5063629;28;20037;-76
2023/01/05 12:43:55;;;;;;;25.38;4.00;;;;;;;;;;5058057;28;20028;-77
2023/01/05 12:46:39;;;;;;;32.80;4.20;;;;;;;;;;5059993;28;20032;-75
2023/01/05 12:49:11;;;;;;;24.83;3.53;;;;;;;;;;5057117;28;20064;-78
2023/01/05 12:51:46;;;;;;;27.05;6.10;;;;;;;;;;5062043;28;20033;-77
2023/01/05 12:54:15;;;;;;;26.58;4.25;;;;;;;;;;5056058;28;20916;-76
2023/01/05 12:56:46;;;;;;;25.33;3.85;;;;;;;;;;5058497;28;20082;-78
2023/01/05 12:59:12;;;;;;;24.30;4.47;;;;;;;;;;5059263;28;20036;-77
2023/01/05 13:01:41;;;;;;;36.55;7.35;;;;;;;;;;5052957;28;20036;-79
2023/01/05 13:04:26;;;;;;;28.70;5.32;;;;;;;;;;5064489;28;20093;-79
2023/01/05 13:06:55;;;;;;;31.85;5.43;;;;;;;;;;5060280;28;20366;-78
2023/01/05 13:09:24;;;;;;;29.95;5.07;;;;;;;;;;5062967;28;20066;-79
2023/01/05 13:11:57;;;;;;;37.80;14.75;;;;;;;;;;5061002;28;20023;-80
2023/01/05 13:14:32;;;;;;;25.55;4.40;;;;;;;;;;5065332;28;20453;-78
2023/01/05 13:17:04;;;;;;;31.55;4.95;;;;;;;;;;5055690;28;20036;-80
2023/01/05 13:19:37;;;;;;;32.90;4.13;;;;;;;;;;5062959;28;20029;-77
2023/01/05 13:22:11;;;;;;;25.13;4.88;;;;;;;;;;5059803;28;20049;-77
2023/01/05 13:24:49;;;;;;;26.80;4.25;;;;;;;;;;5060819;28;20017;-77
2023/01/05 13:27:16;;;;;;;31.38;4.65;;;;;;;;;;5064453;28;20037;-83
2023/01/05 13:29:45;;;;;;;32.53;6.50;;;;;;;;;;5060919;28;20039;-77
2023/01/05 13:32:21;;;;;;;29.95;4.68;;;;;;;;;;5064175;28;20485;-78
2023/01/05 13:34:50;;;;;;;31.20;6.40;;;;;;;;;;5061561;28;20021;-77
2023/01/05 13:37:22;;;;;;;34.83;6.80;;;;;;;;;;5062840;28;20041;-83
2023/01/05 13:39:54;;;;;;;34.63;6.32;;;;;;;;;;5058072;28;20032;-79
2023/01/05 13:42:37;;;;;;;34.75;6.03;;;;;;;;;;5062799;28;20458;-78
2023/01/05 13:45:09;;;;;;;27.63;5.75;;;;;;;;;;5060111;28;20033;-79
2023/01/05 13:47:59;;;;;;;32.60;5.03;;;;;;;;;;5042009;28;20496;-77
2023/01/05 13:50:25;;;;;;;33.72;5.78;;;;;;;;;;5064422;28;20096;-78
2023/01/05 13:52:59;;;;;;;34.38;5.35;;;;;;;;;;5063536;28;20103;-79
2023/01/05 13:55:26;;;;;;;38.78;7.20;;;;;;;;;;5060130;28;20029;-79
2023/01/05 13:57:54;;;;;;;31.15;6.43;;;;;;;;;;5064117;28;20032;-77
2023/01/05 14:00:34;;;;;;;30.42;5.75;;;;;;;;;;5062951;28;20075;-77
2023/01/05 14:03:15;;;;;;;34.38;12.63;;;;;;;;;;5061356;28;20035;-78
2023/01/05 14:05:54;;;;;;;32.33;6.07;;;;;;;;;;5065872;28;20104;-80
2023/01/05 14:08:27;;;;;;;33.78;6.95;;;;;;;;;;5060413;28;20048;-77
2023/01/05 14:11:22;;;;;;;36.42;6.32;;;;;;;;;;5054681;28;20028;-76
2023/01/05 14:13:50;;;;;;;31.45;7.28;;;;;;;;;;5036094;28;20131;-78
2023/01/05 14:16:34;;;;;;;36.13;9.55;;;;;;;;;;5060497;28;20028;-80
2023/01/05 14:19:14;;;;;;;27.73;6.63;;;;;;;;;;5056814;28;20043;-80
2023/01/05 14:21:49;;;;;;;27.63;6.50;;;;;;;;;;5037044;28;20049;-77
2023/01/05 14:24:37;;;;;;;26.55;5.65;;;;;;;;;;5039732;28;20540;-77
2023/01/05 14:27:10;;;;;;;33.20;5.78;;;;;;;;;;5036714;28;20041;-78
2023/01/05 14:29:48;;;;;;;24.25;6.03;;;;;;;;;;5038005;28;20559;-77
2023/01/05 14:32:35;;;;;;;35.35;8.57;;;;;;;;;;5041794;28;20037;-77
2023/01/05 14:35:19;;;;;;;39.00;9.27;;;;;;;;;;5042010;28;20039;-79
2023/01/05 14:37:58;;;;;;;41.95;8.23;;;;;;;;;;5040474;28;21086;-76
2023/01/05 14:40:38;;;;;;;37.28;9.05;;;;;;;;;;5040334;28;20712;-75
2023/01/05 14:43:06;;;;;;;34.90;8.35;;;;;;;;;;5042990;28;20474;-78
2023/01/05 14:45:35;;;;;;;27.05;6.13;;;;;;;;;;5040936;28;20033;-76
2023/01/05 14:48:03;;;;;;;39.88;7.55;;;;;;;;;;5036432;28;20104;-75
2023/01/05 14:50:34;;;;;;;32.08;8.88;;;;;;;;;;5037421;28;20083;-76
2023/01/05 14:53:09;;;;;;;29.10;7.75;;;;;;;;;;5043387;28;20035;-80
2023/01/05 14:55:37;;;;;;;29.48;6.88;;;;;;;;;;5041947;28;20033;-76
2023/01/05 14:58:04;;;;;;;35.53;5.15;;;;;;;;;;5044570;28;20040;-80
2023/01/05 15:00:45;;;;;;;39.17;5.00;;;;;;;;;;5043530;28;20163;-78
2023/01/05 15:03:20;;;;;;;46.85;8.00;;;;;;;;;;5040524;28;20025;-81
2023/01/05 15:05:57;;;;;;;27.08;5.82;;;;;;;;;;5042396;28;20037;-77
2023/01/05 15:08:35;;;;;;;29.73;5.10;;;;;;;;;;5041605;28;20048;-77
2023/01/05 15:11:10;;;;;;;32.03;5.80;;;;;;;;;;5035643;28;20036;-77
2023/01/05 15:13:36;;;;;;;33.85;5.57;;;;;;;;;;5039546;28;20087;-77
2023/01/05 15:16:08;;;;;;;35.28;5.85;;;;;;;;;;5038830;28;20037;-77
2023/01/05 15:18:53;;;;;;;33.75;6.80;;;;;;;;;;5040286;28;20072;-80